Flight Track Log - Related Links

Times and Time Zones

All times are in EDT time to prevent confusion due to time zone crossing. See the AAL621 flight status page for this flight to view local times or setup timezone preferences in your user account.

Time Position Orientation Groundspeed Altitude Reporting Facility
EDT Latitude Longitude Course Direction KTS MPH feet Rate Location/Type
Sat 03:24:28 PM 32.8833 -97.0333 180° South 175 201 1,500  Level Dallas / Fort Worth TRACON
Sat 03:25:33 PM 32.8167 -97.0333 180° South 262 302 3,800 2,764 Climbing Dallas / Fort Worth TRACON
Sat 03:27:39 PM 32.6575 -97.0408 182° South 295 339 10,300 2,806 Climbing Fort Worth Center
Sat 03:28:39 PM 32.5594 -97.0486 184° South 314 361 12,500 2,350 Climbing Fort Worth Center
Sat 03:29:39 PM 32.4800 -97.0614 188° South 348 400 15,000 2,300 Climbing Fort Worth Center
Sat 03:30:39 PM 32.3547 -97.0617 180° South 377 434 17,100 2,000 Climbing Fort Worth Center
Sat 03:31:39 PM 32.2506 -97.0622 180° South 409 471 19,000 2,200 Climbing Fort Worth Center
Sat 03:32:39 PM 32.1169 -97.0675 182° South 422 486 21,500 2,100 Climbing Fort Worth Center
Sat 03:33:39 PM 31.9958 -97.0706 181° South 432 497 23,200 1,650 Climbing Fort Worth Center
Sat 03:34:39 PM 31.8669 -97.0731 181° South 459 528 24,800 1,686 Climbing Houston Center
Sat 03:35:40 PM 31.7328 -97.0778 182° South 474 545 26,600 1,659 Climbing Houston Center
Sat 03:36:42 PM 31.5967 -97.0811 181° South 481 554 28,200 1,452 Climbing Houston Center
Sat 03:37:44 PM 31.4603 -97.1097 190° South 493 567 29,600 878 Climbing Houston Center
Sat 03:38:45 PM 31.3328 -97.1611 199° South 483 556 30,000 195 Climbing Houston Center
Sat 03:39:47 PM 31.2058 -97.2106 198° South 477 549 30,000  Level Houston Center
Sat 03:40:49 PM 31.0789 -97.2603 199° South 477 549 30,000 -823 Level Houston Center
Sat 03:41:51 PM 30.9436 -97.3131 199° South 484 557 28,300 -1,756 Descending Houston Center
Sat 03:42:52 PM 30.8031 -97.3669 198° South 495 570 26,400 -1,805 Descending Houston Center
Sat 03:43:54 PM 30.6750 -97.4158 198° South 484 557 24,600 -1,790 Descending Houston Center
Sat 03:44:56 PM 30.5486 -97.4650 199° South 477 549 22,700 -1,756 Descending Houston Center
Sat 03:45:57 PM 30.4319 -97.5119 199° South 442 509 21,000 -1,659 Descending Houston Center
Sat 03:46:59 PM 30.3242 -97.5653 203° Southwest 420 483 19,300 -1,597 Descending Houston Center
Sat 03:48:01 PM 30.2269 -97.6369 212° Southwest 409 471 17,700 -1,500 Descending Houston Center
Sat 03:49:03 PM 30.1292 -97.7028 210° Southwest 404 465 16,200 -1,582 Descending Houston Center
Sat 03:49:51 PM 30.0389 -97.7667 211° Southwest 392 451 14,800 -1,561 Descending Houston Center
Sat 03:51:06 PM 29.9294 -97.8394 210° Southwest 370 426 13,000 -1,095 Descending Houston Center
Sat 03:52:08 PM 29.8700 -97.9289 233° Southwest 361 415 12,300 -878 Descending Houston Center
Sat 03:53:09 PM 29.8264 -98.0294 243° Southwest 326 375 11,200 -1,366 Descending Houston Center
Sat 03:54:11 PM 29.7892 -98.1183 244° Southwest 310 357 9,500 -1,627 Descending Houston Center
Sat 03:55:07 PM 29.7544 -98.2000 244° Southwest 306 352 8,000 -1,463 Descending Houston Center
Sat 03:56:14 PM 29.7242 -98.3006 251° West 286 329 6,500 -1,395 Descending Houston Center
Sat 03:57:16 PM 29.7156 -98.3894 264° West 282 325 5,000 -1,065 Descending Houston Center
Sat 03:58:18 PM 29.7108 -98.4742 266° West 250 288 4,300 -526 Descending Houston Center
Sat 03:59:10 PM 29.7094 -98.5306 268° West 197 227 4,000 -584 Descending Houston Center
Sat 04:00:11 PM 29.6797 -98.5747 232° Southwest 178 205 3,200 -492 Descending Houston Center
Sat 04:01:12 PM 29.6347 -98.6092 214° Southwest 178 205 3,000 -197 Descending Houston Center

Login

Don't have an account? Register now (free) for customized features, flight alerts, and more!